Ingram, Texas
Current Conditions -  °F | °C
As of 8:55 PM on Friday 21 Nov 2014 (Local Time) from KERV Reporting Station
Overcast Overcast  
Wind Chill: 65°   Ceiling: 1000
Heat Index: 65°   Visibility: 10mi
Dew Point: 63°   Wind: 16mph
Humidity: 93%   Direction: 140°SE
Pressure: 30.03"   Gusts: 25mph
Location:  30.08°N, 99.24°W
Report Text: KERV 220255Z AUTO 14014G22KT 10SM OVC010 19/17 A3003 RMK AO2 T01860174
Loading
Personal Weather Stations






























Interactive Weather Map New forecast layout! Learn more

10-Day Weather Forecast

Advertisements
Track Severe Weather on mobile